sensor_id;sensor_type;location;lat;lon;timestamp;P1;durP1;ratioP1;P2;durP2;ratioP2
81868;SDS011;71320;52.252;13.382;2023-07-31T00:03:23;2.60;;;1.25;;
81868;SDS011;71320;52.252;13.382;2023-07-31T00:08:24;2.47;;;1.50;;
81868;SDS011;71320;52.252;13.382;2023-07-31T00:13:26;2.47;;;1.48;;
81868;SDS011;71320;52.252;13.382;2023-07-31T00:18:29;2.70;;;1.70;;
81868;SDS011;71320;52.252;13.382;2023-07-31T00:23:30;2.25;;;1.50;;
81868;SDS011;71320;52.252;13.382;2023-07-31T00:28:32;3.35;;;1.65;;
81868;SDS011;71320;52.252;13.382;2023-07-31T00:33:35;2.40;;;1.50;;
81868;SDS011;71320;52.252;13.382;2023-07-31T00:38:37;2.83;;;1.65;;
81868;SDS011;71320;52.252;13.382;2023-07-31T00:43:40;2.03;;;1.40;;
81868;SDS011;71320;52.252;13.382;2023-07-31T00:48:42;2.63;;;1.50;;
81868;SDS011;71320;52.252;13.382;2023-07-31T00:53:44;3.10;;;1.80;;
81868;SDS011;71320;52.252;13.382;2023-07-31T00:58:47;3.42;;;1.70;;
81868;SDS011;71320;52.252;13.382;2023-07-31T01:03:50;4.55;;;1.60;;
81868;SDS011;71320;52.252;13.382;2023-07-31T01:08:57;3.65;;;1.70;;
81868;SDS011;71320;52.252;13.382;2023-07-31T01:14:03;6.00;;;1.95;;
81868;SDS011;71320;52.252;13.382;2023-07-31T01:19:07;3.58;;;1.75;;
81868;SDS011;71320;52.252;13.382;2023-07-31T01:24:19;3.70;;;1.75;;
81868;SDS011;71320;52.252;13.382;2023-07-31T01:29:26;4.10;;;1.77;;
81868;SDS011;71320;52.252;13.382;2023-07-31T01:34:33;2.28;;;1.70;;
81868;SDS011;71320;52.252;13.382;2023-07-31T01:39:36;3.08;;;1.77;;
81868;SDS011;71320;52.252;13.382;2023-07-31T01:44:39;2.67;;;1.30;;
81868;SDS011;71320;52.252;13.382;2023-07-31T01:49:41;3.25;;;1.70;;
81868;SDS011;71320;52.252;13.382;2023-07-31T01:54:42;3.72;;;1.67;;
81868;SDS011;71320;52.252;13.382;2023-07-31T01:59:45;2.47;;;1.67;;
81868;SDS011;71320;52.252;13.382;2023-07-31T02:04:47;4.07;;;1.35;;
81868;SDS011;71320;52.252;13.382;2023-07-31T02:09:48;3.70;;;1.83;;
81868;SDS011;71320;52.252;13.382;2023-07-31T02:14:51;3.15;;;1.40;;
81868;SDS011;71320;52.252;13.382;2023-07-31T02:19:53;3.38;;;1.88;;
81868;SDS011;71320;52.252;13.382;2023-07-31T02:24:54;4.10;;;2.00;;
81868;SDS011;71320;52.252;13.382;2023-07-31T02:29:57;2.78;;;1.63;;
81868;SDS011;71320;52.252;13.382;2023-07-31T02:35:00;2.60;;;1.48;;
81868;SDS011;71320;52.252;13.382;2023-07-31T02:40:02;2.78;;;1.60;;
81868;SDS011;71320;52.252;13.382;2023-07-31T02:45:05;4.07;;;1.23;;
81868;SDS011;71320;52.252;13.382;2023-07-31T02:50:08;3.22;;;1.45;;
81868;SDS011;71320;52.252;13.382;2023-07-31T02:55:10;1.70;;;1.40;;
81868;SDS011;71320;52.252;13.382;2023-07-31T03:00:13;4.10;;;1.73;;
81868;SDS011;71320;52.252;13.382;2023-07-31T03:05:15;2.28;;;1.40;;
81868;SDS011;71320;52.252;13.382;2023-07-31T03:10:16;1.92;;;1.13;;
81868;SDS011;71320;52.252;13.382;2023-07-31T03:15:19;2.45;;;1.55;;
81868;SDS011;71320;52.252;13.382;2023-07-31T03:20:21;4.03;;;1.50;;
81868;SDS011;71320;52.252;13.382;2023-07-31T03:25:23;2.72;;;1.50;;
81868;SDS011;71320;52.252;13.382;2023-07-31T03:30:26;3.97;;;1.67;;
81868;SDS011;71320;52.252;13.382;2023-07-31T03:35:27;4.93;;;1.65;;
81868;SDS011;71320;52.252;13.382;2023-07-31T03:40:29;5.03;;;1.40;;
81868;SDS011;71320;52.252;13.382;2023-07-31T03:45:32;3.53;;;1.52;;
81868;SDS011;71320;52.252;13.382;2023-07-31T03:50:33;3.88;;;1.65;;
81868;SDS011;71320;52.252;13.382;2023-07-31T03:55:35;2.08;;;1.23;;
81868;SDS011;71320;52.252;13.382;2023-07-31T04:00:39;3.45;;;1.52;;
81868;SDS011;71320;52.252;13.382;2023-07-31T04:05:41;4.55;;;1.63;;
81868;SDS011;71320;52.252;13.382;2023-07-31T04:10:43;3.80;;;1.50;;
81868;SDS011;71320;52.252;13.382;2023-07-31T04:15:49;4.10;;;1.70;;
81868;SDS011;71320;52.252;13.382;2023-07-31T04:20:50;2.63;;;1.48;;
81868;SDS011;71320;52.252;13.382;2023-07-31T04:25:52;9.35;;;2.65;;
81868;SDS011;71320;52.252;13.382;2023-07-31T04:30:55;1.55;;;1.20;;
81868;SDS011;71320;52.252;13.382;2023-07-31T04:35:56;3.20;;;1.60;;
81868;SDS011;71320;52.252;13.382;2023-07-31T04:40:58;3.20;;;1.42;;
81868;SDS011;71320;52.252;13.382;2023-07-31T04:46:01;3.53;;;1.33;;
81868;SDS011;71320;52.252;13.382;2023-07-31T04:51:03;2.55;;;1.38;;
81868;SDS011;71320;52.252;13.382;2023-07-31T04:56:04;5.85;;;1.58;;
81868;SDS011;71320;52.252;13.382;2023-07-31T05:01:07;2.55;;;1.30;;
81868;SDS011;71320;52.252;13.382;2023-07-31T05:06:09;4.85;;;1.63;;
81868;SDS011;71320;52.252;13.382;2023-07-31T05:11:10;7.30;;;1.70;;
81868;SDS011;71320;52.252;13.382;2023-07-31T05:16:14;5.40;;;1.50;;
81868;SDS011;71320;52.252;13.382;2023-07-31T05:21:16;3.88;;;1.40;;
81868;SDS011;71320;52.252;13.382;2023-07-31T05:26:17;2.28;;;1.42;;
81868;SDS011;71320;52.252;13.382;2023-07-31T05:31:20;3.85;;;1.67;;
81868;SDS011;71320;52.252;13.382;2023-07-31T05:36:22;4.13;;;1.55;;
81868;SDS011;71320;52.252;13.382;2023-07-31T05:41:24;5.25;;;1.55;;
81868;SDS011;71320;52.252;13.382;2023-07-31T05:46:27;9.25;;;1.77;;
81868;SDS011;71320;52.252;13.382;2023-07-31T05:51:29;5.38;;;1.70;;
81868;SDS011;71320;52.252;13.382;2023-07-31T05:56:31;3.75;;;1.45;;
81868;SDS011;71320;52.252;13.382;2023-07-31T06:01:35;9.23;;;1.63;;
81868;SDS011;71320;52.252;13.382;2023-07-31T06:06:37;6.15;;;1.95;;
81868;SDS011;71320;52.252;13.382;2023-07-31T06:11:39;4.97;;;1.75;;
81868;SDS011;71320;52.252;13.382;2023-07-31T06:16:42;3.80;;;1.23;;
81868;SDS011;71320;52.252;13.382;2023-07-31T06:21:44;6.57;;;1.70;;
81868;SDS011;71320;52.252;13.382;2023-07-31T06:26:46;7.13;;;1.40;;
81868;SDS011;71320;52.252;13.382;2023-07-31T06:31:49;5.22;;;1.48;;
81868;SDS011;71320;52.252;13.382;2023-07-31T06:36:50;6.63;;;1.90;;
81868;SDS011;71320;52.252;13.382;2023-07-31T06:41:52;7.82;;;2.67;;
81868;SDS011;71320;52.252;13.382;2023-07-31T06:46:55;5.38;;;2.05;;
81868;SDS011;71320;52.252;13.382;2023-07-31T06:51:57;3.42;;;1.80;;
81868;SDS011;71320;52.252;13.382;2023-07-31T06:56:59;5.38;;;1.83;;
81868;SDS011;71320;52.252;13.382;2023-07-31T07:02:02;3.47;;;1.50;;
81868;SDS011;71320;52.252;13.382;2023-07-31T07:07:04;4.10;;;1.45;;
81868;SDS011;71320;52.252;13.382;2023-07-31T07:12:06;6.07;;;1.85;;
81868;SDS011;71320;52.252;13.382;2023-07-31T07:17:10;5.20;;;1.92;;
81868;SDS011;71320;52.252;13.382;2023-07-31T07:22:11;5.70;;;1.90;;
81868;SDS011;71320;52.252;13.382;2023-07-31T07:27:13;4.32;;;1.75;;
81868;SDS011;71320;52.252;13.382;2023-07-31T07:32:16;5.00;;;1.70;;
81868;SDS011;71320;52.252;13.382;2023-07-31T07:37:18;4.32;;;1.90;;
81868;SDS011;71320;52.252;13.382;2023-07-31T07:42:20;4.88;;;1.80;;
81868;SDS011;71320;52.252;13.382;2023-07-31T07:47:23;3.97;;;1.70;;
81868;SDS011;71320;52.252;13.382;2023-07-31T07:52:24;3.17;;;1.75;;
81868;SDS011;71320;52.252;13.382;2023-07-31T07:57:26;6.25;;;2.30;;
81868;SDS011;71320;52.252;13.382;2023-07-31T08:02:29;2.78;;;1.50;;
81868;SDS011;71320;52.252;13.382;2023-07-31T08:07:31;5.40;;;1.90;;
81868;SDS011;71320;52.252;13.382;2023-07-31T08:12:33;7.38;;;2.05;;
81868;SDS011;71320;52.252;13.382;2023-07-31T08:17:36;8.13;;;2.17;;
81868;SDS011;71320;52.252;13.382;2023-07-31T08:22:37;2.40;;;1.67;;
81868;SDS011;71320;52.252;13.382;2023-07-31T08:27:42;4.35;;;1.98;;
81868;SDS011;71320;52.252;13.382;2023-07-31T08:32:45;4.30;;;1.77;;
81868;SDS011;71320;52.252;13.382;2023-07-31T08:37:47;5.78;;;1.98;;
81868;SDS011;71320;52.252;13.382;2023-07-31T08:42:49;3.95;;;2.08;;
81868;SDS011;71320;52.252;13.382;2023-07-31T08:47:54;3.67;;;1.50;;
81868;SDS011;71320;52.252;13.382;2023-07-31T08:52:57;3.85;;;1.45;;
81868;SDS011;71320;52.252;13.382;2023-07-31T08:57:59;3.67;;;1.20;;
81868;SDS011;71320;52.252;13.382;2023-07-31T09:03:07;6.60;;;1.70;;
81868;SDS011;71320;52.252;13.382;2023-07-31T09:08:11;4.38;;;1.73;;
81868;SDS011;71320;52.252;13.382;2023-07-31T09:13:14;3.70;;;2.00;;
81868;SDS011;71320;52.252;13.382;2023-07-31T09:18:17;2.00;;;1.67;;
81868;SDS011;71320;52.252;13.382;2023-07-31T09:23:22;4.32;;;1.30;;
81868;SDS011;71320;52.252;13.382;2023-07-31T09:28:24;3.25;;;1.70;;
81868;SDS011;71320;52.252;13.382;2023-07-31T09:33:33;4.80;;;1.85;;
81868;SDS011;71320;52.252;13.382;2023-07-31T09:38:56;4.40;;;1.85;;
81868;SDS011;71320;52.252;13.382;2023-07-31T09:44:03;7.15;;;2.50;;
81868;SDS011;71320;52.252;13.382;2023-07-31T09:49:09;5.03;;;2.22;;
81868;SDS011;71320;52.252;13.382;2023-07-31T09:54:12;4.00;;;1.95;;
81868;SDS011;71320;52.252;13.382;2023-07-31T09:59:15;5.90;;;2.10;;
81868;SDS011;71320;52.252;13.382;2023-07-31T10:04:19;3.90;;;2.10;;
81868;SDS011;71320;52.252;13.382;2023-07-31T10:09:25;7.65;;;2.67;;
81868;SDS011;71320;52.252;13.382;2023-07-31T10:14:31;5.35;;;2.30;;
81868;SDS011;71320;52.252;13.382;2023-07-31T10:19:35;6.00;;;1.80;;
81868;SDS011;71320;52.252;13.382;2023-07-31T10:24:37;4.53;;;2.05;;
81868;SDS011;71320;52.252;13.382;2023-07-31T10:29:39;9.88;;;2.50;;
81868;SDS011;71320;52.252;13.382;2023-07-31T10:34:45;3.72;;;1.88;;
81868;SDS011;71320;52.252;13.382;2023-07-31T10:39:55;6.22;;;2.08;;
81868;SDS011;71320;52.252;13.382;2023-07-31T10:44:59;9.18;;;2.20;;
81868;SDS011;71320;52.252;13.382;2023-07-31T10:50:17;4.32;;;2.20;;
81868;SDS011;71320;52.252;13.382;2023-07-31T10:55:27;3.50;;;2.00;;
81868;SDS011;71320;52.252;13.382;2023-07-31T11:00:30;4.95;;;2.40;;
81868;SDS011;71320;52.252;13.382;2023-07-31T11:05:46;4.82;;;1.90;;
81868;SDS011;71320;52.252;13.382;2023-07-31T11:10:50;5.43;;;2.20;;
81868;SDS011;71320;52.252;13.382;2023-07-31T11:16:05;5.43;;;2.15;;
81868;SDS011;71320;52.252;13.382;2023-07-31T11:21:08;5.40;;;2.50;;
81868;SDS011;71320;52.252;13.382;2023-07-31T11:26:13;4.82;;;2.33;;
81868;SDS011;71320;52.252;13.382;2023-07-31T11:31:15;3.50;;;2.40;;
81868;SDS011;71320;52.252;13.382;2023-07-31T11:36:20;3.65;;;2.17;;
81868;SDS011;71320;52.252;13.382;2023-07-31T11:41:21;3.03;;;1.95;;
81868;SDS011;71320;52.252;13.382;2023-07-31T11:46:23;5.10;;;2.50;;
81868;SDS011;71320;52.252;13.382;2023-07-31T11:51:27;4.18;;;2.08;;
81868;SDS011;71320;52.252;13.382;2023-07-31T11:56:30;3.83;;;1.92;;
81868;SDS011;71320;52.252;13.382;2023-07-31T12:01:32;6.05;;;2.28;;
81868;SDS011;71320;52.252;13.382;2023-07-31T12:06:35;3.35;;;2.00;;
81868;SDS011;71320;52.252;13.382;2023-07-31T12:11:42;4.35;;;2.15;;
81868;SDS011;71320;52.252;13.382;2023-07-31T12:16:45;3.08;;;1.90;;
81868;SDS011;71320;52.252;13.382;2023-07-31T12:21:48;5.32;;;2.00;;
81868;SDS011;71320;52.252;13.382;2023-07-31T12:26:50;4.38;;;1.65;;
81868;SDS011;71320;52.252;13.382;2023-07-31T12:31:52;3.80;;;1.90;;
81868;SDS011;71320;52.252;13.382;2023-07-31T12:36:55;2.90;;;1.55;;
81868;SDS011;71320;52.252;13.382;2023-07-31T12:41:57;2.65;;;1.75;;
81868;SDS011;71320;52.252;13.382;2023-07-31T12:46:59;3.83;;;2.20;;
81868;SDS011;71320;52.252;13.382;2023-07-31T12:52:02;4.72;;;2.00;;
81868;SDS011;71320;52.252;13.382;2023-07-31T12:57:04;7.55;;;2.55;;
81868;SDS011;71320;52.252;13.382;2023-07-31T13:02:06;3.50;;;2.05;;
81868;SDS011;71320;52.252;13.382;2023-07-31T13:07:09;5.60;;;1.92;;
81868;SDS011;71320;52.252;13.382;2023-07-31T13:12:11;5.38;;;2.38;;
81868;SDS011;71320;52.252;13.382;2023-07-31T13:17:13;9.57;;;2.63;;
81868;SDS011;71320;52.252;13.382;2023-07-31T13:22:16;5.07;;;2.35;;
81868;SDS011;71320;52.252;13.382;2023-07-31T13:27:17;6.05;;;2.50;;
81868;SDS011;71320;52.252;13.382;2023-07-31T13:32:21;5.10;;;2.60;;
81868;SDS011;71320;52.252;13.382;2023-07-31T13:37:24;4.30;;;2.58;;
81868;SDS011;71320;52.252;13.382;2023-07-31T13:42:26;6.18;;;2.72;;
81868;SDS011;71320;52.252;13.382;2023-07-31T13:47:28;4.05;;;2.33;;
81868;SDS011;71320;52.252;13.382;2023-07-31T13:52:32;5.72;;;2.80;;
81868;SDS011;71320;52.252;13.382;2023-07-31T13:57:34;4.70;;;2.33;;
81868;SDS011;71320;52.252;13.382;2023-07-31T14:02:36;5.63;;;2.40;;
81868;SDS011;71320;52.252;13.382;2023-07-31T14:07:39;4.75;;;2.33;;
81868;SDS011;71320;52.252;13.382;2023-07-31T14:12:41;4.15;;;2.50;;
81868;SDS011;71320;52.252;13.382;2023-07-31T14:17:42;5.15;;;2.28;;
81868;SDS011;71320;52.252;13.382;2023-07-31T14:22:45;5.63;;;2.80;;
81868;SDS011;71320;52.252;13.382;2023-07-31T14:27:47;3.88;;;2.40;;
81868;SDS011;71320;52.252;13.382;2023-07-31T14:32:48;4.05;;;2.50;;
81868;SDS011;71320;52.252;13.382;2023-07-31T14:37:51;4.40;;;3.15;;
81868;SDS011;71320;52.252;13.382;2023-07-31T14:42:53;4.15;;;2.33;;
81868;SDS011;71320;52.252;13.382;2023-07-31T14:47:55;5.10;;;2.58;;
81868;SDS011;71320;52.252;13.382;2023-07-31T14:52:58;4.18;;;2.40;;
81868;SDS011;71320;52.252;13.382;2023-07-31T14:58:00;2.88;;;2.20;;
81868;SDS011;71320;52.252;13.382;2023-07-31T15:03:02;5.05;;;2.60;;
81868;SDS011;71320;52.252;13.382;2023-07-31T15:08:05;3.92;;;2.40;;
81868;SDS011;71320;52.252;13.382;2023-07-31T15:13:07;8.93;;;2.58;;
81868;SDS011;71320;52.252;13.382;2023-07-31T15:18:08;5.53;;;2.58;;
81868;SDS011;71320;52.252;13.382;2023-07-31T15:23:11;4.78;;;2.40;;
81868;SDS011;71320;52.252;13.382;2023-07-31T15:28:14;3.88;;;2.30;;
81868;SDS011;71320;52.252;13.382;2023-07-31T15:33:16;6.35;;;2.70;;
81868;SDS011;71320;52.252;13.382;2023-07-31T15:38:19;6.65;;;2.75;;
81868;SDS011;71320;52.252;13.382;2023-07-31T15:43:20;5.38;;;2.50;;
81868;SDS011;71320;52.252;13.382;2023-07-31T15:48:22;6.22;;;2.83;;
81868;SDS011;71320;52.252;13.382;2023-07-31T15:53:25;6.63;;;3.30;;
81868;SDS011;71320;52.252;13.382;2023-07-31T15:58:27;7.80;;;3.05;;
81868;SDS011;71320;52.252;13.382;2023-07-31T16:03:29;5.50;;;2.72;;
81868;SDS011;71320;52.252;13.382;2023-07-31T16:08:32;3.97;;;2.50;;
81868;SDS011;71320;52.252;13.382;2023-07-31T16:13:40;4.88;;;2.72;;
81868;SDS011;71320;52.252;13.382;2023-07-31T16:18:42;4.90;;;2.95;;
81868;SDS011;71320;52.252;13.382;2023-07-31T16:23:45;5.47;;;3.42;;
81868;SDS011;71320;52.252;13.382;2023-07-31T16:28:47;7.47;;;3.35;;
81868;SDS011;71320;52.252;13.382;2023-07-31T16:33:48;5.70;;;2.47;;
81868;SDS011;71320;52.252;13.382;2023-07-31T16:38:51;5.78;;;2.45;;
81868;SDS011;71320;52.252;13.382;2023-07-31T16:43:53;6.13;;;2.45;;
81868;SDS011;71320;52.252;13.382;2023-07-31T16:48:54;3.92;;;2.58;;
81868;SDS011;71320;52.252;13.382;2023-07-31T16:53:57;5.10;;;2.40;;
81868;SDS011;71320;52.252;13.382;2023-07-31T16:58:59;4.85;;;2.17;;
81868;SDS011;71320;52.252;13.382;2023-07-31T17:04:00;3.83;;;2.58;;
81868;SDS011;71320;52.252;13.382;2023-07-31T17:09:03;4.15;;;2.13;;
81868;SDS011;71320;52.252;13.382;2023-07-31T17:14:05;4.03;;;2.10;;
81868;SDS011;71320;52.252;13.382;2023-07-31T17:19:07;7.20;;;1.95;;
81868;SDS011;71320;52.252;13.382;2023-07-31T17:24:10;2.70;;;1.80;;
81868;SDS011;71320;52.252;13.382;2023-07-31T17:29:14;4.68;;;1.80;;
81868;SDS011;71320;52.252;13.382;2023-07-31T17:34:16;4.82;;;3.08;;
81868;SDS011;71320;52.252;13.382;2023-07-31T17:39:19;6.63;;;2.30;;
81868;SDS011;71320;52.252;13.382;2023-07-31T17:44:21;6.22;;;1.90;;
81868;SDS011;71320;52.252;13.382;2023-07-31T17:49:23;3.33;;;2.22;;
81868;SDS011;71320;52.252;13.382;2023-07-31T17:54:25;7.72;;;2.13;;
81868;SDS011;71320;52.252;13.382;2023-07-31T17:59:27;5.13;;;1.90;;
81868;SDS011;71320;52.252;13.382;2023-07-31T18:04:29;6.75;;;2.30;;
81868;SDS011;71320;52.252;13.382;2023-07-31T18:09:32;5.68;;;2.83;;
81868;SDS011;71320;52.252;13.382;2023-07-31T18:14:34;5.55;;;2.08;;
81868;SDS011;71320;52.252;13.382;2023-07-31T18:19:37;3.47;;;1.98;;
81868;SDS011;71320;52.252;13.382;2023-07-31T18:24:40;7.13;;;2.38;;
81868;SDS011;71320;52.252;13.382;2023-07-31T18:29:42;5.13;;;2.50;;
81868;SDS011;71320;52.252;13.382;2023-07-31T18:34:43;5.00;;;2.47;;
81868;SDS011;71320;52.252;13.382;2023-07-31T18:39:47;4.95;;;2.03;;
81868;SDS011;71320;52.252;13.382;2023-07-31T18:44:48;4.82;;;2.15;;
81868;SDS011;71320;52.252;13.382;2023-07-31T18:49:50;6.22;;;2.70;;
81868;SDS011;71320;52.252;13.382;2023-07-31T18:54:53;6.63;;;2.92;;
81868;SDS011;71320;52.252;13.382;2023-07-31T18:59:55;3.53;;;2.08;;
81868;SDS011;71320;52.252;13.382;2023-07-31T19:04:56;4.68;;;2.25;;
81868;SDS011;71320;52.252;13.382;2023-07-31T19:09:59;2.90;;;2.00;;
81868;SDS011;71320;52.252;13.382;2023-07-31T19:15:02;4.53;;;2.42;;
81868;SDS011;71320;52.252;13.382;2023-07-31T19:20:04;6.60;;;2.72;;
81868;SDS011;71320;52.252;13.382;2023-07-31T19:25:08;7.65;;;3.10;;
81868;SDS011;71320;52.252;13.382;2023-07-31T19:30:10;5.13;;;2.70;;
81868;SDS011;71320;52.252;13.382;2023-07-31T19:35:12;4.05;;;2.35;;
81868;SDS011;71320;52.252;13.382;2023-07-31T19:40:17;3.25;;;2.08;;
81868;SDS011;71320;52.252;13.382;2023-07-31T19:45:21;2.60;;;2.10;;
81868;SDS011;71320;52.252;13.382;2023-07-31T19:50:23;5.05;;;2.50;;
81868;SDS011;71320;52.252;13.382;2023-07-31T19:55:26;4.10;;;2.00;;
81868;SDS011;71320;52.252;13.382;2023-07-31T20:00:29;4.88;;;2.72;;
81868;SDS011;71320;52.252;13.382;2023-07-31T20:05:31;5.28;;;2.80;;
81868;SDS011;71320;52.252;13.382;2023-07-31T20:10:34;4.15;;;2.20;;
81868;SDS011;71320;52.252;13.382;2023-07-31T20:15:35;2.97;;;2.13;;
81868;SDS011;71320;52.252;13.382;2023-07-31T20:20:37;3.63;;;2.13;;
81868;SDS011;71320;52.252;13.382;2023-07-31T20:25:40;4.18;;;2.00;;
81868;SDS011;71320;52.252;13.382;2023-07-31T20:30:43;3.38;;;2.35;;
81868;SDS011;71320;52.252;13.382;2023-07-31T20:35:44;4.85;;;2.58;;
81868;SDS011;71320;52.252;13.382;2023-07-31T20:40:49;5.25;;;2.22;;
81868;SDS011;71320;52.252;13.382;2023-07-31T20:45:51;2.95;;;2.45;;
81868;SDS011;71320;52.252;13.382;2023-07-31T20:50:53;3.30;;;1.83;;
81868;SDS011;71320;52.252;13.382;2023-07-31T20:55:56;3.67;;;2.33;;
81868;SDS011;71320;52.252;13.382;2023-07-31T21:00:58;4.03;;;2.03;;
81868;SDS011;71320;52.252;13.382;2023-07-31T21:05:59;4.65;;;2.45;;
81868;SDS011;71320;52.252;13.382;2023-07-31T21:11:03;5.80;;;2.42;;
81868;SDS011;71320;52.252;13.382;2023-07-31T21:16:05;3.03;;;2.10;;
81868;SDS011;71320;52.252;13.382;2023-07-31T21:21:07;3.53;;;2.10;;
81868;SDS011;71320;52.252;13.382;2023-07-31T21:26:11;5.35;;;2.30;;
81868;SDS011;71320;52.252;13.382;2023-07-31T21:31:13;2.97;;;2.25;;
81868;SDS011;71320;52.252;13.382;2023-07-31T21:36:16;5.28;;;2.63;;
81868;SDS011;71320;52.252;13.382;2023-07-31T21:41:19;5.88;;;2.45;;
81868;SDS011;71320;52.252;13.382;2023-07-31T21:46:20;3.45;;;2.15;;
81868;SDS011;71320;52.252;13.382;2023-07-31T21:51:22;4.45;;;2.20;;
81868;SDS011;71320;52.252;13.382;2023-07-31T21:56:25;3.08;;;2.33;;
81868;SDS011;71320;52.252;13.382;2023-07-31T22:01:27;5.93;;;2.90;;
81868;SDS011;71320;52.252;13.382;2023-07-31T22:06:29;4.65;;;2.53;;
81868;SDS011;71320;52.252;13.382;2023-07-31T22:11:32;4.63;;;2.13;;
81868;SDS011;71320;52.252;13.382;2023-07-31T22:16:33;3.25;;;2.38;;
81868;SDS011;71320;52.252;13.382;2023-07-31T22:21:36;3.13;;;2.15;;
81868;SDS011;71320;52.252;13.382;2023-07-31T22:26:39;4.32;;;2.05;;
81868;SDS011;71320;52.252;13.382;2023-07-31T22:31:41;4.65;;;2.40;;
81868;SDS011;71320;52.252;13.382;2023-07-31T22:36:43;3.65;;;2.00;;
81868;SDS011;71320;52.252;13.382;2023-07-31T22:41:46;3.92;;;2.40;;
81868;SDS011;71320;52.252;13.382;2023-07-31T22:46:47;3.80;;;2.40;;
81868;SDS011;71320;52.252;13.382;2023-07-31T22:51:49;3.13;;;2.00;;
81868;SDS011;71320;52.252;13.382;2023-07-31T22:56:52;4.35;;;2.38;;
81868;SDS011;71320;52.252;13.382;2023-07-31T23:01:55;4.40;;;2.30;;
81868;SDS011;71320;52.252;13.382;2023-07-31T23:06:56;4.25;;;2.67;;
81868;SDS011;71320;52.252;13.382;2023-07-31T23:11:59;4.03;;;2.33;;
81868;SDS011;71320;52.252;13.382;2023-07-31T23:17:01;4.07;;;2.55;;
81868;SDS011;71320;52.252;13.382;2023-07-31T23:22:03;5.55;;;2.58;;
81868;SDS011;71320;52.252;13.382;2023-07-31T23:27:06;4.15;;;2.08;;
81868;SDS011;71320;52.252;13.382;2023-07-31T23:32:08;4.18;;;2.42;;
81868;SDS011;71320;52.252;13.382;2023-07-31T23:37:10;5.45;;;2.35;;
81868;SDS011;71320;52.252;13.382;2023-07-31T23:42:13;4.25;;;2.72;;
81868;SDS011;71320;52.252;13.382;2023-07-31T23:47:15;3.53;;;2.67;;
81868;SDS011;71320;52.252;13.382;2023-07-31T23:52:16;6.25;;;2.53;;
81868;SDS011;71320;52.252;13.382;2023-07-31T23:57:19;4.25;;;2.13;;
